Oconomowoc, Wisconsin
Current Conditions -  °F | °C
As of 3:15 AM on Thursday 18 Dec 2014 (Local Time) from KRYV Reporting Station
Overcast Overcast  
Wind Chill: 19°   Ceiling: 2400
Heat Index: 19°   Visibility: 10mi
Dew Point: 16°   Wind: 3mph
Humidity: 87%   Direction: 320°NW
Pressure: 30.26"   Gusts: NA
Location:  43.11°N, 88.5°W
Report Text: KRYV 180915Z AUTO 32003KT 10SM OVC024 M07/M09 A3026 RMK AO2 T10701088
Loading
Personal Weather Stations






























Interactive Weather Map New forecast layout! Learn more

10-Day Weather Forecast

Advertisements
Track Severe Weather on mobile